createdAt,value
2023-05-17T00:02:02.325Z,13.20
2023-05-17T00:04:29.559Z,13.20
2023-05-17T00:06:56.739Z,13.20
2023-05-17T00:09:23.974Z,13.20
2023-05-17T00:11:51.099Z,13.20
2023-05-17T00:14:18.154Z,13.20
2023-05-17T00:16:45.412Z,13.20
2023-05-17T00:19:13.127Z,13.10
2023-05-17T00:21:40.366Z,13.10
2023-05-17T00:24:07.836Z,13.20
2023-05-17T00:26:35.484Z,13.20
2023-05-17T00:29:03.948Z,13.20
2023-05-17T00:31:33.068Z,13.20
2023-05-17T00:34:00.182Z,13.20
2023-05-17T00:36:27.435Z,13.20
2023-05-17T00:38:54.517Z,13.20
2023-05-17T00:41:24.054Z,13.20
2023-05-17T00:43:51.324Z,13.20
2023-05-17T00:46:18.382Z,13.10
2023-05-17T00:48:45.700Z,13.10
2023-05-17T00:51:14.073Z,13.10
2023-05-17T00:53:41.329Z,13.10
2023-05-17T00:56:08.453Z,13.00
2023-05-17T00:58:37.628Z,13.00
2023-05-17T01:01:04.900Z,13.00
2023-05-17T01:03:32.711Z,13.00
2023-05-17T01:06:00.015Z,13.00
2023-05-17T01:08:27.128Z,13.00
2023-05-17T01:11:17.187Z,13.00
2023-05-17T01:13:52.597Z,13.00
2023-05-17T01:16:31.881Z,13.00
2023-05-17T01:19:02.454Z,13.00
2023-05-17T01:21:41.396Z,13.00
2023-05-17T01:24:18.723Z,12.90
2023-05-17T01:26:47.510Z,12.90
2023-05-17T01:29:17.233Z,12.90
2023-05-17T01:31:47.417Z,12.90
2023-05-17T01:34:14.530Z,12.80
2023-05-17T01:36:43.443Z,12.80
2023-05-17T01:39:10.954Z,12.80
2023-05-17T01:41:40.749Z,12.80
2023-05-17T01:44:26.967Z,12.80
2023-05-17T01:46:57.750Z,12.70
2023-05-17T01:49:31.651Z,12.70
2023-05-17T01:52:03.485Z,12.70
2023-05-17T01:54:32.369Z,12.70
2023-05-17T01:56:59.955Z,12.70
2023-05-17T01:59:27.934Z,12.70
2023-05-17T02:01:57.907Z,12.70
2023-05-17T02:04:25.145Z,12.70
2023-05-17T02:06:56.480Z,12.60
2023-05-17T02:09:23.486Z,12.60
2023-05-17T02:11:50.548Z,12.60
2023-05-17T02:14:17.762Z,12.60
2023-05-17T02:16:45.117Z,12.60
2023-05-17T02:19:13.507Z,12.60
2023-05-17T02:21:40.748Z,12.60
2023-05-17T02:24:08.902Z,12.60
2023-05-17T02:26:37.600Z,12.60
2023-05-17T02:29:04.741Z,12.60
2023-05-17T02:31:31.991Z,12.60
2023-05-17T02:33:59.547Z,12.50
2023-05-17T02:36:27.292Z,12.50
2023-05-17T02:38:54.826Z,12.50
2023-05-17T02:41:22.390Z,12.50
2023-05-17T02:43:50.933Z,12.50
2023-05-17T02:46:20.719Z,12.50
2023-05-17T02:48:48.489Z,12.50
2023-05-17T02:51:15.955Z,12.50
2023-05-17T02:53:43.479Z,12.50
2023-05-17T02:56:13.769Z,12.50
2023-05-17T02:58:41.117Z,12.40
2023-05-17T03:01:09.785Z,12.40
2023-05-17T03:03:38.713Z,12.40
2023-05-17T03:06:06.076Z,12.30
2023-05-17T03:08:33.212Z,12.30
2023-05-17T03:11:00.332Z,12.30
2023-05-17T03:13:27.462Z,12.30
2023-05-17T03:15:54.752Z,12.30
2023-05-17T03:18:22.265Z,12.30
2023-05-17T03:20:49.889Z,12.30
2023-05-17T03:23:16.956Z,12.30
2023-05-17T03:25:44.075Z,12.30
2023-05-17T03:28:11.838Z,12.30
2023-05-17T03:30:39.728Z,12.20
2023-05-17T03:33:07.271Z,12.20
2023-05-17T03:35:34.677Z,12.10
2023-05-17T03:38:02.026Z,12.10
2023-05-17T03:40:29.196Z,12.10
2023-05-17T03:42:58.088Z,12.10
2023-05-17T03:45:25.332Z,12.10
2023-05-17T03:47:52.718Z,12.10
2023-05-17T03:50:20.299Z,12.10
2023-05-17T03:52:47.599Z,12.10
2023-05-17T03:55:14.955Z,12.10
2023-05-17T03:57:42.209Z,12.20
2023-05-17T04:00:12.652Z,12.10
2023-05-17T04:02:40.819Z,12.20
2023-05-17T04:05:11.315Z,12.20
2023-05-17T04:07:39.068Z,12.20
2023-05-17T04:10:06.528Z,12.20
2023-05-17T04:12:33.994Z,12.20
2023-05-17T04:15:02.306Z,12.20
2023-05-17T04:17:30.527Z,12.20
2023-05-17T04:19:58.244Z,12.20
2023-05-17T04:22:25.780Z,12.20
2023-05-17T04:24:54.533Z,12.20
2023-05-17T04:27:22.496Z,12.20
2023-05-17T04:29:49.558Z,12.20
2023-05-17T04:32:18.017Z,12.20
2023-05-17T04:34:45.424Z,12.20
2023-05-17T04:37:12.972Z,12.20
2023-05-17T04:39:41.045Z,12.20
2023-05-17T04:42:09.369Z,12.20
2023-05-17T04:44:37.292Z,12.20
2023-05-17T04:47:04.853Z,12.20
2023-05-17T04:49:34.552Z,12.20
2023-05-17T04:54:29.315Z,12.20
2023-05-17T04:56:57.154Z,12.20
2023-05-17T04:59:26.578Z,12.20
2023-05-17T05:01:55.965Z,12.20
2023-05-17T05:04:24.255Z,12.20
2023-05-17T05:06:52.166Z,12.20
2023-05-17T05:09:19.685Z,12.20
2023-05-17T05:11:46.943Z,12.20
2023-05-17T05:14:14.520Z,12.20
2023-05-17T05:16:41.663Z,12.20
2023-05-17T05:19:10.670Z,12.20
2023-05-17T05:21:38.356Z,12.20
2023-05-17T05:24:06.126Z,12.20
2023-05-17T05:26:33.333Z,12.20
2023-05-17T05:29:00.887Z,12.20
2023-05-17T05:31:29.071Z,12.20
2023-05-17T05:33:57.257Z,12.20
2023-05-17T05:36:24.485Z,12.20
2023-05-17T05:38:56.344Z,12.20
2023-05-17T05:41:23.892Z,12.20
2023-05-17T05:43:51.197Z,12.20
2023-05-17T05:46:28.154Z,12.20
2023-05-17T05:48:55.363Z,12.20
2023-05-17T05:51:22.867Z,12.20
2023-05-17T05:53:50.287Z,12.20
2023-05-17T05:56:17.465Z,12.20
2023-05-17T05:58:45.903Z,12.20
2023-05-17T06:01:13.184Z,12.20
2023-05-17T06:03:40.454Z,12.20
2023-05-17T06:06:10.731Z,12.20
2023-05-17T06:08:38.202Z,12.20
2023-05-17T06:11:05.933Z,12.10
2023-05-17T06:13:33.136Z,12.10
2023-05-17T06:16:00.373Z,12.10
2023-05-17T06:18:30.812Z,12.00
2023-05-17T06:20:58.214Z,12.00
2023-05-17T06:23:26.780Z,12.00
2023-05-17T06:25:54.154Z,11.90
2023-05-17T06:28:21.487Z,11.90
2023-05-17T06:30:49.106Z,11.90
2023-05-17T06:33:17.185Z,11.90
2023-05-17T06:35:55.330Z,11.90
2023-05-17T06:38:24.202Z,12.00
2023-05-17T06:40:54.961Z,12.00
2023-05-17T06:43:22.635Z,12.00
2023-05-17T06:45:50.166Z,12.00
2023-05-17T06:48:17.729Z,12.00
2023-05-17T06:50:45.219Z,12.00
2023-05-17T06:53:12.700Z,11.90
2023-05-17T06:55:40.727Z,11.90
2023-05-17T06:58:11.127Z,12.00
2023-05-17T07:00:39.609Z,12.00
2023-05-17T07:03:07.159Z,11.90
2023-05-17T07:05:34.646Z,11.90
2023-05-17T07:08:01.979Z,11.90
2023-05-17T07:10:29.717Z,11.90
2023-05-17T07:12:57.342Z,11.90
2023-05-17T07:15:24.462Z,11.90
2023-05-17T07:17:51.617Z,11.90
2023-05-17T07:20:18.958Z,11.90
2023-05-17T07:22:46.200Z,11.90
2023-05-17T07:25:14.706Z,11.90
2023-05-17T07:27:41.822Z,11.90
2023-05-17T07:30:10.149Z,11.90
2023-05-17T07:32:37.460Z,11.90
2023-05-17T07:35:04.752Z,11.80
2023-05-17T07:37:33.578Z,11.80
2023-05-17T07:40:00.876Z,11.80
2023-05-17T07:42:28.126Z,11.80
2023-05-17T07:44:55.378Z,11.80
2023-05-17T07:47:22.769Z,11.80
2023-05-17T07:49:50.652Z,11.80
2023-05-17T07:52:18.734Z,11.80
2023-05-17T07:54:45.875Z,11.80
2023-05-17T07:57:12.938Z,11.70
2023-05-17T07:59:40.370Z,11.80
2023-05-17T08:02:10.593Z,11.70
2023-05-17T08:04:38.118Z,11.80
2023-05-17T08:07:05.544Z,11.70
2023-05-17T08:09:32.875Z,11.70
2023-05-17T08:12:00.832Z,11.70
2023-05-17T08:14:28.074Z,11.80
2023-05-17T08:16:55.592Z,11.80
2023-05-17T08:19:23.193Z,11.70
2023-05-17T08:21:50.908Z,11.80
2023-05-17T08:24:19.571Z,11.80
2023-05-17T08:26:47.111Z,11.70
2023-05-17T08:29:14.648Z,11.70
2023-05-17T08:31:43.008Z,11.70
2023-05-17T08:34:10.271Z,11.70
2023-05-17T08:36:38.544Z,11.70
2023-05-17T08:39:06.016Z,11.70
2023-05-17T08:41:33.492Z,11.70
2023-05-17T08:44:01.171Z,11.70
2023-05-17T08:46:28.690Z,11.70
2023-05-17T08:49:00.589Z,11.70
2023-05-17T08:51:29.882Z,11.70
2023-05-17T08:53:57.962Z,11.70
2023-05-17T08:56:26.501Z,11.60
2023-05-17T08:58:58.156Z,11.60
2023-05-17T09:01:27.958Z,11.70
2023-05-17T09:03:56.267Z,11.70
2023-05-17T09:06:24.463Z,11.70
2023-05-17T09:08:55.585Z,11.70
2023-05-17T09:11:27.479Z,11.70
2023-05-17T09:13:58.541Z,11.70
2023-05-17T09:16:31.429Z,11.70
2023-05-17T09:18:59.589Z,11.70
2023-05-17T09:21:27.629Z,11.60
2023-05-17T09:24:05.316Z,11.60
2023-05-17T09:26:44.184Z,11.60
2023-05-17T09:29:12.444Z,11.60
2023-05-17T09:31:40.620Z,11.60
2023-05-17T09:34:08.786Z,11.60
2023-05-17T09:36:42.843Z,11.60
2023-05-17T09:39:13.994Z,11.60
2023-05-17T09:41:47.944Z,11.50
2023-05-17T09:44:17.260Z,11.50
2023-05-17T09:46:48.548Z,11.50
2023-05-17T09:49:16.784Z,11.50
2023-05-17T09:51:45.645Z,11.50
2023-05-17T09:54:14.333Z,11.60
2023-05-17T09:56:41.515Z,11.60
2023-05-17T09:59:13.206Z,11.70
2023-05-17T10:01:41.448Z,11.80
2023-05-17T10:04:11.973Z,11.80
2023-05-17T10:06:51.384Z,11.80
2023-05-17T10:09:22.038Z,11.90
2023-05-17T10:11:51.437Z,11.90
2023-05-17T10:14:23.627Z,12.00
2023-05-17T10:16:52.338Z,12.00
2023-05-17T10:19:21.322Z,12.00
2023-05-17T10:21:50.600Z,12.00
2023-05-17T10:24:17.951Z,12.00
2023-05-17T10:26:45.612Z,12.00
2023-05-17T10:29:12.972Z,12.00
2023-05-17T10:31:41.421Z,11.90
2023-05-17T10:34:09.552Z,11.90
2023-05-17T10:36:38.399Z,11.80
2023-05-17T10:39:10.058Z,11.80
2023-05-17T10:41:38.609Z,11.80
2023-05-17T10:44:08.667Z,11.90
2023-05-17T10:46:37.271Z,11.90
2023-05-17T10:49:04.641Z,11.80
2023-05-17T10:51:37.562Z,11.90
2023-05-17T10:54:04.781Z,11.90
2023-05-17T10:56:35.102Z,11.90
2023-05-17T10:59:15.708Z,11.90
2023-05-17T11:01:55.993Z,11.90
2023-05-17T11:04:27.287Z,11.90
2023-05-17T11:07:14.882Z,11.90
2023-05-17T11:09:42.381Z,11.90
2023-05-17T11:12:12.728Z,11.90
2023-05-17T11:14:46.051Z,11.90
2023-05-17T11:17:16.866Z,11.90
2023-05-17T11:19:53.736Z,11.80
2023-05-17T11:22:24.714Z,11.80
2023-05-17T11:24:54.053Z,11.80
2023-05-17T11:27:27.890Z,11.80
2023-05-17T11:29:59.269Z,11.80
2023-05-17T11:32:28.216Z,11.80
2023-05-17T11:34:56.143Z,11.80
2023-05-17T11:37:28.148Z,11.80
2023-05-17T11:40:03.194Z,11.80
2023-05-17T11:42:30.498Z,11.80
2023-05-17T11:44:58.607Z,11.80
2023-05-17T11:47:25.917Z,11.80
2023-05-17T11:49:56.353Z,11.80
2023-05-17T11:52:23.952Z,11.80
2023-05-17T11:54:52.688Z,11.80
2023-05-17T11:57:21.957Z,11.90
2023-05-17T11:59:49.253Z,11.90
2023-05-17T12:02:34.490Z,11.90
2023-05-17T12:05:02.359Z,11.90
2023-05-17T12:07:30.273Z,11.90
2023-05-17T12:09:57.918Z,11.90
2023-05-17T12:12:25.464Z,11.90
2023-05-17T12:14:53.006Z,12.00
2023-05-17T12:17:34.935Z,12.00
2023-05-17T12:20:09.207Z,12.00
2023-05-17T12:22:51.601Z,12.00
2023-05-17T12:25:25.872Z,12.00
2023-05-17T12:27:53.647Z,12.00
2023-05-17T12:30:23.150Z,12.10
2023-05-17T12:32:50.529Z,12.10
2023-05-17T12:35:18.415Z,12.10
2023-05-17T12:37:46.000Z,12.10
2023-05-17T12:40:13.374Z,12.10
2023-05-17T12:42:41.485Z,12.20
2023-05-17T12:45:10.079Z,12.20
2023-05-17T12:47:39.041Z,12.20
2023-05-17T12:50:06.452Z,12.20
2023-05-17T12:52:34.409Z,12.20
2023-05-17T12:55:05.160Z,12.20
2023-05-17T12:57:33.204Z,12.20
2023-05-17T13:00:10.275Z,12.30
2023-05-17T13:02:37.465Z,12.30
2023-05-17T13:05:22.062Z,12.40
2023-05-17T13:07:49.128Z,12.40
2023-05-17T13:10:24.726Z,12.40
2023-05-17T13:12:58.586Z,12.40
2023-05-17T13:15:33.475Z,12.40
2023-05-17T13:18:01.415Z,12.40
2023-05-17T13:20:29.597Z,12.40
2023-05-17T13:22:58.395Z,12.50
2023-05-17T13:25:27.195Z,12.50
2023-05-17T13:27:55.761Z,12.50
2023-05-17T13:30:23.016Z,12.60
2023-05-17T13:32:51.217Z,12.60
2023-05-17T13:35:18.703Z,12.60
2023-05-17T13:37:45.748Z,12.60
2023-05-17T13:40:14.855Z,12.70
2023-05-17T13:42:42.122Z,12.70
2023-05-17T13:45:09.968Z,12.70
2023-05-17T13:47:37.343Z,12.70
2023-05-17T13:50:04.847Z,12.80
2023-05-17T13:52:32.215Z,12.80
2023-05-17T13:54:59.445Z,12.80
2023-05-17T13:57:27.005Z,12.80
2023-05-17T13:59:55.510Z,12.90
2023-05-17T14:02:22.709Z,12.90
2023-05-17T14:04:49.884Z,12.90
2023-05-17T14:07:17.848Z,12.90
2023-05-17T14:09:47.677Z,12.90
2023-05-17T14:12:14.886Z,12.90
2023-05-17T14:14:42.675Z,12.80
2023-05-17T14:17:09.806Z,12.80
2023-05-17T14:19:37.780Z,12.90
2023-05-17T14:22:05.580Z,12.80
2023-05-17T14:24:35.024Z,12.80
2023-05-17T14:27:03.537Z,12.80
2023-05-17T14:29:32.131Z,12.80
2023-05-17T14:31:59.333Z,12.80
2023-05-17T14:34:26.977Z,12.80
2023-05-17T14:36:54.587Z,12.80
2023-05-17T14:39:21.855Z,12.80
2023-05-17T14:41:49.560Z,12.80
2023-05-17T14:44:17.187Z,12.80
2023-05-17T14:46:44.423Z,12.80
2023-05-17T14:49:11.696Z,12.80
2023-05-17T14:51:39.242Z,12.80
2023-05-17T14:54:06.550Z,12.80
2023-05-17T14:56:34.666Z,12.80
2023-05-17T14:59:02.299Z,12.80
2023-05-17T15:01:30.400Z,12.80
2023-05-17T15:03:57.845Z,12.70
2023-05-17T15:06:27.998Z,12.70
2023-05-17T15:08:56.270Z,12.70
2023-05-17T15:11:23.894Z,12.70
2023-05-17T15:13:53.282Z,12.70
2023-05-17T15:16:21.297Z,12.70
2023-05-17T15:18:48.651Z,12.70
2023-05-17T15:21:18.236Z,12.60
2023-05-17T15:23:46.616Z,12.60
2023-05-17T15:26:14.649Z,12.60
2023-05-17T15:28:42.701Z,12.60
2023-05-17T15:31:11.330Z,12.60
2023-05-17T15:33:43.662Z,12.60
2023-05-17T15:36:13.112Z,12.60
2023-05-17T15:38:41.388Z,12.60
2023-05-17T15:41:11.295Z,12.70
2023-05-17T15:43:42.067Z,12.60
2023-05-17T15:46:12.493Z,12.60
2023-05-17T15:48:39.968Z,12.60
2023-05-17T15:51:07.753Z,12.60
2023-05-17T15:53:35.228Z,12.60
2023-05-17T15:56:03.062Z,12.60
2023-05-17T15:58:33.626Z,12.70
2023-05-17T16:01:05.459Z,12.60
2023-05-17T16:03:33.389Z,12.60
2023-05-17T16:06:01.368Z,12.60
2023-05-17T16:08:28.960Z,12.60
2023-05-17T16:10:56.407Z,12.60
2023-05-17T16:13:23.741Z,12.60
2023-05-17T16:15:51.434Z,12.60
2023-05-17T16:18:18.708Z,12.60
2023-05-17T16:20:46.226Z,12.50
2023-05-17T16:23:14.004Z,12.50
2023-05-17T16:25:44.266Z,12.50
2023-05-17T16:28:12.695Z,12.50
2023-05-17T16:30:40.088Z,12.50
2023-05-17T16:33:09.584Z,12.50
2023-05-17T16:35:37.035Z,12.50
2023-05-17T16:38:04.381Z,12.50
2023-05-17T16:40:32.196Z,12.50
2023-05-17T16:42:59.610Z,12.50
2023-05-17T16:45:27.757Z,12.50
2023-05-17T16:47:54.927Z,12.50
2023-05-17T16:50:24.188Z,12.50
2023-05-17T16:52:51.525Z,12.50
2023-05-17T16:55:18.989Z,12.50
2023-05-17T16:57:46.996Z,12.50
2023-05-17T17:00:18.112Z,12.50
2023-05-17T17:02:45.774Z,12.50
2023-05-17T17:05:13.331Z,12.50
2023-05-17T17:07:40.926Z,12.50
2023-05-17T17:10:08.698Z,12.40
2023-05-17T17:12:36.005Z,12.40
2023-05-17T17:15:04.068Z,12.40
2023-05-17T17:17:35.490Z,12.40
2023-05-17T17:20:03.828Z,12.40
2023-05-17T17:22:31.104Z,12.40
2023-05-17T17:24:58.299Z,12.40
2023-05-17T17:27:26.316Z,12.30
2023-05-17T17:29:56.128Z,12.30
2023-05-17T17:32:23.921Z,12.30
2023-05-17T17:34:51.529Z,12.30
2023-05-17T17:37:19.123Z,12.30
2023-05-17T17:39:46.803Z,12.20
2023-05-17T17:42:16.567Z,12.20
2023-05-17T17:44:44.453Z,12.20
2023-05-17T17:47:12.535Z,12.20
2023-05-17T17:49:39.716Z,12.10
2023-05-17T17:52:08.748Z,12.10
2023-05-17T17:54:36.759Z,12.00
2023-05-17T17:57:04.428Z,12.00
2023-05-17T17:59:32.403Z,12.10
2023-05-17T18:02:02.712Z,12.10
2023-05-17T18:04:30.079Z,12.10
2023-05-17T18:06:57.664Z,12.10
2023-05-17T18:09:24.872Z,12.10
2023-05-17T18:11:52.374Z,12.20
2023-05-17T18:14:20.306Z,12.10
2023-05-17T18:16:50.679Z,12.10
2023-05-17T18:19:18.954Z,12.10
2023-05-17T18:21:47.077Z,12.10
2023-05-17T18:24:14.721Z,12.10
2023-05-17T18:26:41.906Z,12.10
2023-05-17T18:29:13.117Z,12.10
2023-05-17T18:31:40.663Z,12.00
2023-05-17T18:34:10.978Z,12.00
2023-05-17T18:36:39.413Z,12.00
2023-05-17T18:39:06.854Z,12.00
2023-05-17T18:41:34.043Z,12.00
2023-05-17T18:44:03.188Z,12.00
2023-05-17T18:46:30.792Z,11.90
2023-05-17T18:48:59.265Z,11.90
2023-05-17T18:51:29.609Z,11.80
2023-05-17T18:53:58.664Z,11.80
2023-05-17T18:56:27.170Z,11.80
2023-05-17T18:58:55.786Z,11.70
2023-05-17T19:01:23.253Z,11.70
2023-05-17T19:03:59.932Z,11.60
2023-05-17T19:06:30.548Z,11.60
2023-05-17T19:09:01.157Z,11.60
2023-05-17T19:11:32.495Z,11.70
2023-05-17T19:14:00.333Z,11.70
2023-05-17T19:16:27.920Z,11.70
2023-05-17T19:18:55.233Z,11.70
2023-05-17T19:21:22.971Z,11.70
2023-05-17T19:23:53.721Z,12.00
2023-05-17T19:26:22.324Z,12.30
2023-05-17T19:28:49.669Z,12.50
2023-05-17T19:31:17.214Z,12.50
2023-05-17T19:33:48.026Z,12.40
2023-05-17T19:36:15.373Z,12.40
2023-05-17T19:38:42.852Z,12.30
2023-05-17T19:41:10.802Z,12.20
2023-05-17T19:43:39.034Z,12.10
2023-05-17T19:46:12.116Z,12.10
2023-05-17T19:48:40.657Z,12.00
2023-05-17T19:51:08.114Z,11.90
2023-05-17T19:53:50.798Z,11.90
2023-05-17T19:56:20.036Z,11.80
2023-05-17T19:58:47.568Z,11.80
2023-05-17T20:01:18.397Z,11.70
2023-05-17T20:03:45.971Z,11.70
2023-05-17T20:06:14.604Z,11.70
2023-05-17T20:08:44.114Z,11.70
2023-05-17T20:11:12.683Z,11.60
2023-05-17T20:13:44.241Z,11.60
2023-05-17T20:16:14.981Z,11.50
2023-05-17T20:18:43.923Z,11.50
2023-05-17T20:21:18.613Z,11.50
2023-05-17T20:23:46.597Z,11.60
2023-05-17T20:26:17.149Z,11.60
2023-05-17T20:28:44.757Z,11.60
2023-05-17T20:31:12.570Z,11.60
2023-05-17T20:33:41.267Z,11.50
2023-05-17T20:36:12.077Z,11.60
2023-05-17T20:38:40.547Z,11.60
2023-05-17T20:41:08.205Z,11.60
2023-05-17T20:43:35.684Z,11.60
2023-05-17T20:46:10.261Z,11.60
2023-05-17T20:48:37.781Z,11.60
2023-05-17T20:51:05.104Z,11.60
2023-05-17T20:53:33.111Z,11.60
2023-05-17T20:56:01.077Z,11.60
2023-05-17T20:58:31.684Z,11.70
2023-05-17T21:01:00.471Z,11.70
2023-05-17T21:03:28.970Z,11.70
2023-05-17T21:05:56.983Z,11.70
2023-05-17T21:08:25.247Z,11.70
2023-05-17T21:10:52.992Z,11.70
2023-05-17T21:13:24.426Z,11.70
2023-05-17T21:15:56.718Z,11.70
2023-05-17T21:18:25.190Z,11.70
2023-05-17T21:20:53.154Z,11.70
2023-05-17T21:23:20.608Z,11.70
2023-05-17T21:25:49.547Z,11.70
2023-05-17T21:28:16.824Z,11.70
2023-05-17T21:30:44.491Z,11.70
2023-05-17T21:33:12.177Z,11.70
2023-05-17T21:35:39.760Z,11.70
2023-05-17T21:38:07.365Z,11.60
2023-05-17T21:40:35.049Z,11.60
2023-05-17T21:43:02.992Z,11.60
2023-05-17T21:45:30.739Z,11.60
2023-05-17T21:47:57.968Z,11.60
2023-05-17T21:50:32.583Z,11.60
2023-05-17T21:53:09.584Z,11.60
2023-05-17T21:55:56.250Z,11.60
2023-05-17T21:58:24.344Z,11.60
2023-05-17T22:00:51.812Z,11.60
2023-05-17T22:03:19.329Z,11.60
2023-05-17T22:05:48.074Z,11.60
2023-05-17T22:08:15.485Z,11.60
2023-05-17T22:10:42.887Z,11.60
2023-05-17T22:13:12.674Z,11.70
2023-05-17T22:15:42.060Z,11.70
2023-05-17T22:18:09.643Z,11.70
2023-05-17T22:20:38.194Z,11.60
2023-05-17T22:23:05.398Z,11.60
2023-05-17T22:25:32.553Z,11.60
2023-05-17T22:28:00.176Z,11.60
2023-05-17T22:30:29.134Z,11.60
2023-05-17T22:33:01.333Z,11.70
2023-05-17T22:35:29.243Z,11.70
2023-05-17T22:37:56.806Z,11.80
2023-05-17T22:40:24.026Z,11.70
2023-05-17T22:42:52.512Z,11.70
2023-05-17T22:45:20.051Z,11.70
2023-05-17T22:47:48.823Z,11.70
2023-05-17T22:50:18.558Z,11.70
2023-05-17T22:52:47.513Z,11.70
2023-05-17T22:55:14.824Z,11.70
2023-05-17T22:57:42.993Z,11.60
2023-05-17T23:00:11.923Z,11.60
2023-05-17T23:02:40.712Z,11.60
2023-05-17T23:05:08.802Z,11.60
2023-05-17T23:07:40.966Z,11.60
2023-05-17T23:10:13.029Z,11.60
2023-05-17T23:12:40.568Z,11.70
2023-05-17T23:15:08.626Z,11.70
2023-05-17T23:17:36.811Z,11.70
2023-05-17T23:20:09.380Z,11.70
2023-05-17T23:22:37.090Z,11.70
2023-05-17T23:25:04.327Z,11.60
2023-05-17T23:27:32.433Z,11.60
2023-05-17T23:30:01.890Z,11.60
2023-05-17T23:32:34.167Z,11.60
2023-05-17T23:35:05.241Z,11.60
2023-05-17T23:37:36.441Z,11.60
2023-05-17T23:40:07.184Z,11.70
2023-05-17T23:42:34.821Z,11.70
2023-05-17T23:45:03.191Z,11.70
2023-05-17T23:47:34.213Z,11.70
2023-05-17T23:50:03.612Z,11.70
2023-05-17T23:52:32.997Z,11.70
2023-05-17T23:55:00.573Z,11.70
2023-05-17T23:57:28.017Z,11.70
2023-05-17T23:59:55.136Z,11.70
